Weather

Partly Cloudy
Saturday 01/19 0%
Partly Cloudy
Partly cloudy. Lows overnight in the upper 20s.
Partly Cloudy
Sunday 01/20 0%
Partly Cloudy
Some sun in the morning with increasing clouds during the afternoon. High 54F. Winds light and variable.
Partly Cloudy
Monday 01/21 20%
Partly Cloudy
Partly cloudy. Gusty winds in the afternoon. High 58F. SW winds at 10 to 20 mph, increasing to 20 to 30 mph. Winds could occasionally gust over 40 mph.
Partly Cloudy
Tuesday 01/22 20%
Partly Cloudy
Cloudy skies early, then partly cloudy in the afternoon. High 42F. Winds NW at 5 to 10 mph.
Clear
Wednesday 01/23 0%
Clear
Sunny skies. High around 45F. Winds NW at 10 to 15 mph.

 

 

For a detailed forecast click the banner below.

ballooncastlogo

 

 

Available data for KABQ from the past 2 hours
ALBUQUERQUE, NM
Metar
KABQ 192252Z VRB06KT 10SM SCT250 08/M07 A3031 RMK AO2 SLP261 T00831072

22:52 UTC

Wind: ° 6kt

Visibility: 10 SM

Sky: SCT 25000 ft

Temp: 8 deg C / 46.4 deg F

Dewpoint: -7 deg C / 19.4 deg F

Pressure: 30.31 inHg

TAF
KABQ 191720Z 1918/2018 36006KT P6SM SKC FM192000 30007KT P6SM FEW250 FM200400 35006KT P6SM BKN250
Pirep (1)
ARP UAL653 3502N 10649W 2240 F390 TB CONT LGT CHOP RM B752 OV ABQ FL390 AND 370